sensor_id;sensor_type;location;lat;lon;timestamp;P1;durP1;ratioP1;P2;durP2;ratioP2
41687;SDS011;27371;42.686;23.362;2023-04-24T00:00:56;5.20;;;2.83;;
41687;SDS011;27371;42.686;23.362;2023-04-24T00:03:22;3.83;;;2.67;;
41687;SDS011;27371;42.686;23.362;2023-04-24T00:05:48;8.85;;;2.80;;
41687;SDS011;27371;42.686;23.362;2023-04-24T00:08:14;7.35;;;3.17;;
41687;SDS011;27371;42.686;23.362;2023-04-24T00:10:40;6.28;;;3.05;;
41687;SDS011;27371;42.686;23.362;2023-04-24T00:13:06;5.28;;;2.90;;
41687;SDS011;27371;42.686;23.362;2023-04-24T00:15:32;5.88;;;2.90;;
41687;SDS011;27371;42.686;23.362;2023-04-24T00:17:58;5.95;;;2.78;;
41687;SDS011;27371;42.686;23.362;2023-04-24T00:20:23;4.45;;;2.95;;
41687;SDS011;27371;42.686;23.362;2023-04-24T00:22:49;8.07;;;3.88;;
41687;SDS011;27371;42.686;23.362;2023-04-24T00:25:14;5.97;;;3.20;;
41687;SDS011;27371;42.686;23.362;2023-04-24T00:27:40;7.43;;;3.20;;
41687;SDS011;27371;42.686;23.362;2023-04-24T00:30:05;6.57;;;2.85;;
41687;SDS011;27371;42.686;23.362;2023-04-24T00:32:31;8.13;;;3.00;;
41687;SDS011;27371;42.686;23.362;2023-04-24T00:34:57;4.80;;;3.00;;
41687;SDS011;27371;42.686;23.362;2023-04-24T00:37:22;4.88;;;3.10;;
41687;SDS011;27371;42.686;23.362;2023-04-24T00:39:48;6.53;;;2.83;;
41687;SDS011;27371;42.686;23.362;2023-04-24T00:42:13;7.85;;;2.70;;
41687;SDS011;27371;42.686;23.362;2023-04-24T00:44:39;6.25;;;2.80;;
41687;SDS011;27371;42.686;23.362;2023-04-24T00:47:05;7.53;;;3.30;;
41687;SDS011;27371;42.686;23.362;2023-04-24T00:49:31;6.47;;;3.40;;
41687;SDS011;27371;42.686;23.362;2023-04-24T00:51:56;4.78;;;2.92;;
41687;SDS011;27371;42.686;23.362;2023-04-24T00:54:24;8.10;;;3.40;;
41687;SDS011;27371;42.686;23.362;2023-04-24T00:56:50;6.82;;;2.90;;
41687;SDS011;27371;42.686;23.362;2023-04-24T00:59:16;7.32;;;3.67;;
41687;SDS011;27371;42.686;23.362;2023-04-24T01:01:43;8.30;;;3.70;;
41687;SDS011;27371;42.686;23.362;2023-04-24T01:04:11;9.90;;;3.33;;
41687;SDS011;27371;42.686;23.362;2023-04-24T01:06:38;5.05;;;2.90;;
41687;SDS011;27371;42.686;23.362;2023-04-24T01:09:04;4.60;;;2.92;;
41687;SDS011;27371;42.686;23.362;2023-04-24T01:11:30;5.55;;;3.10;;
41687;SDS011;27371;42.686;23.362;2023-04-24T01:13:56;7.38;;;3.00;;
41687;SDS011;27371;42.686;23.362;2023-04-24T01:16:22;10.00;;;3.05;;
41687;SDS011;27371;42.686;23.362;2023-04-24T01:18:48;6.60;;;3.05;;
41687;SDS011;27371;42.686;23.362;2023-04-24T01:21:15;8.18;;;3.15;;
41687;SDS011;27371;42.686;23.362;2023-04-24T01:23:44;6.97;;;3.40;;
41687;SDS011;27371;42.686;23.362;2023-04-24T01:26:10;6.25;;;3.33;;
41687;SDS011;27371;42.686;23.362;2023-04-24T01:28:36;6.22;;;3.63;;
41687;SDS011;27371;42.686;23.362;2023-04-24T01:31:02;9.20;;;3.80;;
41687;SDS011;27371;42.686;23.362;2023-04-24T01:33:28;7.47;;;3.58;;
41687;SDS011;27371;42.686;23.362;2023-04-24T01:35:53;6.80;;;3.60;;
41687;SDS011;27371;42.686;23.362;2023-04-24T01:38:19;7.72;;;3.63;;
41687;SDS011;27371;42.686;23.362;2023-04-24T01:40:45;6.55;;;3.30;;
41687;SDS011;27371;42.686;23.362;2023-04-24T01:43:11;5.78;;;3.17;;
41687;SDS011;27371;42.686;23.362;2023-04-24T01:45:38;7.93;;;3.90;;
41687;SDS011;27371;42.686;23.362;2023-04-24T01:48:04;8.68;;;3.38;;
41687;SDS011;27371;42.686;23.362;2023-04-24T01:50:30;7.35;;;3.83;;
41687;SDS011;27371;42.686;23.362;2023-04-24T01:52:55;8.50;;;3.90;;
41687;SDS011;27371;42.686;23.362;2023-04-24T01:55:21;8.02;;;4.05;;
41687;SDS011;27371;42.686;23.362;2023-04-24T01:57:46;9.18;;;5.32;;
41687;SDS011;27371;42.686;23.362;2023-04-24T02:00:12;13.43;;;4.93;;
41687;SDS011;27371;42.686;23.362;2023-04-24T02:02:38;8.50;;;4.72;;
41687;SDS011;27371;42.686;23.362;2023-04-24T02:05:08;8.07;;;4.40;;
41687;SDS011;27371;42.686;23.362;2023-04-24T02:07:34;8.50;;;3.83;;
41687;SDS011;27371;42.686;23.362;2023-04-24T02:09:59;11.90;;;4.60;;
41687;SDS011;27371;42.686;23.362;2023-04-24T02:12:25;8.40;;;4.30;;
41687;SDS011;27371;42.686;23.362;2023-04-24T02:14:50;8.07;;;4.55;;
41687;SDS011;27371;42.686;23.362;2023-04-24T02:17:16;5.65;;;4.22;;
41687;SDS011;27371;42.686;23.362;2023-04-24T02:19:44;5.55;;;3.97;;
41687;SDS011;27371;42.686;23.362;2023-04-24T02:22:09;9.43;;;4.25;;
41687;SDS011;27371;42.686;23.362;2023-04-24T02:24:35;10.43;;;5.38;;
41687;SDS011;27371;42.686;23.362;2023-04-24T02:27:01;8.45;;;4.78;;
41687;SDS011;27371;42.686;23.362;2023-04-24T02:29:27;9.50;;;4.22;;
41687;SDS011;27371;42.686;23.362;2023-04-24T02:31:53;6.47;;;3.78;;
41687;SDS011;27371;42.686;23.362;2023-04-24T02:34:19;7.50;;;4.10;;
41687;SDS011;27371;42.686;23.362;2023-04-24T02:36:44;10.40;;;5.05;;
41687;SDS011;27371;42.686;23.362;2023-04-24T02:39:09;5.90;;;3.80;;
41687;SDS011;27371;42.686;23.362;2023-04-24T02:41:35;6.65;;;3.85;;
41687;SDS011;27371;42.686;23.362;2023-04-24T02:44:00;7.03;;;4.15;;
41687;SDS011;27371;42.686;23.362;2023-04-24T02:46:26;6.82;;;4.13;;
41687;SDS011;27371;42.686;23.362;2023-04-24T02:48:52;7.80;;;3.92;;
41687;SDS011;27371;42.686;23.362;2023-04-24T02:51:17;9.10;;;4.40;;
41687;SDS011;27371;42.686;23.362;2023-04-24T02:53:42;8.13;;;4.30;;
41687;SDS011;27371;42.686;23.362;2023-04-24T02:56:08;7.05;;;4.80;;
41687;SDS011;27371;42.686;23.362;2023-04-24T02:58:33;8.75;;;5.22;;
41687;SDS011;27371;42.686;23.362;2023-04-24T03:01:00;8.45;;;4.68;;
41687;SDS011;27371;42.686;23.362;2023-04-24T03:03:26;10.93;;;5.47;;
41687;SDS011;27371;42.686;23.362;2023-04-24T03:05:51;11.48;;;4.95;;
41687;SDS011;27371;42.686;23.362;2023-04-24T03:08:17;6.38;;;4.38;;
41687;SDS011;27371;42.686;23.362;2023-04-24T03:10:43;8.05;;;4.50;;
41687;SDS011;27371;42.686;23.362;2023-04-24T03:13:08;9.48;;;4.15;;
41687;SDS011;27371;42.686;23.362;2023-04-24T03:15:34;9.80;;;5.32;;
41687;SDS011;27371;42.686;23.362;2023-04-24T03:17:59;8.60;;;4.43;;
41687;SDS011;27371;42.686;23.362;2023-04-24T03:20:25;8.85;;;4.32;;
41687;SDS011;27371;42.686;23.362;2023-04-24T03:22:51;9.30;;;4.50;;
41687;SDS011;27371;42.686;23.362;2023-04-24T03:25:16;7.88;;;4.68;;
41687;SDS011;27371;42.686;23.362;2023-04-24T03:27:42;6.88;;;4.20;;
41687;SDS011;27371;42.686;23.362;2023-04-24T03:30:07;7.28;;;4.05;;
41687;SDS011;27371;42.686;23.362;2023-04-24T03:32:33;7.15;;;3.90;;
41687;SDS011;27371;42.686;23.362;2023-04-24T03:34:59;6.47;;;3.47;;
41687;SDS011;27371;42.686;23.362;2023-04-24T03:37:25;10.50;;;3.63;;
41687;SDS011;27371;42.686;23.362;2023-04-24T03:39:51;6.78;;;3.67;;
41687;SDS011;27371;42.686;23.362;2023-04-24T03:42:17;8.95;;;4.10;;
41687;SDS011;27371;42.686;23.362;2023-04-24T03:44:42;6.90;;;3.75;;
41687;SDS011;27371;42.686;23.362;2023-04-24T03:47:08;9.02;;;3.72;;
41687;SDS011;27371;42.686;23.362;2023-04-24T03:49:33;5.80;;;3.42;;
41687;SDS011;27371;42.686;23.362;2023-04-24T03:51:59;9.02;;;3.80;;
41687;SDS011;27371;42.686;23.362;2023-04-24T03:54:24;6.70;;;3.80;;
41687;SDS011;27371;42.686;23.362;2023-04-24T03:56:50;5.95;;;3.58;;
41687;SDS011;27371;42.686;23.362;2023-04-24T03:59:16;8.35;;;3.70;;
41687;SDS011;27371;42.686;23.362;2023-04-24T04:01:41;10.52;;;3.40;;
41687;SDS011;27371;42.686;23.362;2023-04-24T04:04:07;4.60;;;3.17;;
41687;SDS011;27371;42.686;23.362;2023-04-24T04:06:33;8.95;;;3.75;;
41687;SDS011;27371;42.686;23.362;2023-04-24T04:08:58;5.38;;;3.20;;
41687;SDS011;27371;42.686;23.362;2023-04-24T04:11:24;12.40;;;3.28;;
41687;SDS011;27371;42.686;23.362;2023-04-24T04:13:49;12.05;;;3.58;;
41687;SDS011;27371;42.686;23.362;2023-04-24T04:16:15;6.47;;;3.05;;
41687;SDS011;27371;42.686;23.362;2023-04-24T04:18:44;7.05;;;2.88;;
41687;SDS011;27371;42.686;23.362;2023-04-24T04:21:10;6.90;;;3.47;;
41687;SDS011;27371;42.686;23.362;2023-04-24T04:23:36;9.25;;;3.42;;
41687;SDS011;27371;42.686;23.362;2023-04-24T04:26:02;6.50;;;3.22;;
41687;SDS011;27371;42.686;23.362;2023-04-24T04:28:28;8.52;;;3.35;;
41687;SDS011;27371;42.686;23.362;2023-04-24T04:30:55;6.90;;;3.10;;
41687;SDS011;27371;42.686;23.362;2023-04-24T04:33:22;7.45;;;3.00;;
41687;SDS011;27371;42.686;23.362;2023-04-24T04:35:51;7.20;;;2.70;;
41687;SDS011;27371;42.686;23.362;2023-04-24T04:38:17;7.78;;;3.25;;
41687;SDS011;27371;42.686;23.362;2023-04-24T04:40:44;6.57;;;3.47;;
41687;SDS011;27371;42.686;23.362;2023-04-24T04:43:10;4.97;;;2.88;;
41687;SDS011;27371;42.686;23.362;2023-04-24T04:45:36;7.03;;;3.45;;
41687;SDS011;27371;42.686;23.362;2023-04-24T04:48:04;8.63;;;3.20;;
41687;SDS011;27371;42.686;23.362;2023-04-24T04:50:32;8.70;;;3.70;;
41687;SDS011;27371;42.686;23.362;2023-04-24T04:52:57;8.35;;;3.28;;
41687;SDS011;27371;42.686;23.362;2023-04-24T04:55:23;13.32;;;3.30;;
41687;SDS011;27371;42.686;23.362;2023-04-24T04:57:48;11.05;;;3.92;;
41687;SDS011;27371;42.686;23.362;2023-04-24T05:00:14;14.57;;;3.67;;
41687;SDS011;27371;42.686;23.362;2023-04-24T05:02:40;10.48;;;3.97;;
41687;SDS011;27371;42.686;23.362;2023-04-24T05:05:06;7.75;;;3.58;;
41687;SDS011;27371;42.686;23.362;2023-04-24T05:07:32;9.85;;;3.92;;
41687;SDS011;27371;42.686;23.362;2023-04-24T05:09:58;5.95;;;3.47;;
41687;SDS011;27371;42.686;23.362;2023-04-24T05:12:23;7.88;;;4.07;;
41687;SDS011;27371;42.686;23.362;2023-04-24T05:14:48;9.98;;;4.22;;
41687;SDS011;27371;42.686;23.362;2023-04-24T05:17:14;12.95;;;3.72;;
41687;SDS011;27371;42.686;23.362;2023-04-24T05:19:40;9.82;;;4.10;;
41687;SDS011;27371;42.686;23.362;2023-04-24T05:22:06;12.15;;;4.32;;
41687;SDS011;27371;42.686;23.362;2023-04-24T05:24:35;14.18;;;4.70;;
41687;SDS011;27371;42.686;23.362;2023-04-24T05:27:01;12.77;;;4.65;;
41687;SDS011;27371;42.686;23.362;2023-04-24T05:29:27;12.82;;;5.22;;
41687;SDS011;27371;42.686;23.362;2023-04-24T05:31:55;13.85;;;5.47;;
41687;SDS011;27371;42.686;23.362;2023-04-24T05:34:21;15.63;;;5.55;;
41687;SDS011;27371;42.686;23.362;2023-04-24T05:36:46;8.45;;;5.22;;
41687;SDS011;27371;42.686;23.362;2023-04-24T05:39:12;10.25;;;5.28;;
41687;SDS011;27371;42.686;23.362;2023-04-24T05:41:38;10.50;;;5.43;;
41687;SDS011;27371;42.686;23.362;2023-04-24T05:44:03;16.05;;;5.35;;
41687;SDS011;27371;42.686;23.362;2023-04-24T05:46:29;14.73;;;4.88;;
41687;SDS011;27371;42.686;23.362;2023-04-24T05:48:54;9.82;;;5.22;;
41687;SDS011;27371;42.686;23.362;2023-04-24T05:51:20;11.27;;;5.60;;
41687;SDS011;27371;42.686;23.362;2023-04-24T05:53:45;8.40;;;5.40;;
41687;SDS011;27371;42.686;23.362;2023-04-24T05:56:11;12.25;;;5.75;;
41687;SDS011;27371;42.686;23.362;2023-04-24T05:58:36;13.73;;;5.35;;
41687;SDS011;27371;42.686;23.362;2023-04-24T06:01:02;9.88;;;4.75;;
41687;SDS011;27371;42.686;23.362;2023-04-24T06:03:28;11.15;;;5.32;;
41687;SDS011;27371;42.686;23.362;2023-04-24T06:05:54;13.52;;;5.57;;
41687;SDS011;27371;42.686;23.362;2023-04-24T06:08:19;10.10;;;5.30;;
41687;SDS011;27371;42.686;23.362;2023-04-24T06:10:45;13.10;;;5.30;;
41687;SDS011;27371;42.686;23.362;2023-04-24T06:13:10;15.55;;;5.97;;
41687;SDS011;27371;42.686;23.362;2023-04-24T06:15:37;9.63;;;5.63;;
41687;SDS011;27371;42.686;23.362;2023-04-24T06:18:03;9.52;;;5.53;;
41687;SDS011;27371;42.686;23.362;2023-04-24T06:20:29;11.10;;;5.63;;
41687;SDS011;27371;42.686;23.362;2023-04-24T06:22:54;8.75;;;5.70;;
41687;SDS011;27371;42.686;23.362;2023-04-24T06:25:20;12.00;;;5.45;;
41687;SDS011;27371;42.686;23.362;2023-04-24T06:27:46;9.20;;;4.53;;
41687;SDS011;27371;42.686;23.362;2023-04-24T06:30:11;7.97;;;5.07;;
41687;SDS011;27371;42.686;23.362;2023-04-24T06:32:37;9.38;;;5.32;;
41687;SDS011;27371;42.686;23.362;2023-04-24T06:35:03;13.10;;;5.60;;
41687;SDS011;27371;42.686;23.362;2023-04-24T06:37:29;12.15;;;5.25;;
41687;SDS011;27371;42.686;23.362;2023-04-24T06:39:54;11.32;;;6.10;;
41687;SDS011;27371;42.686;23.362;2023-04-24T06:42:20;10.90;;;5.30;;
41687;SDS011;27371;42.686;23.362;2023-04-24T06:44:46;12.38;;;5.78;;
41687;SDS011;27371;42.686;23.362;2023-04-24T06:47:12;10.02;;;5.18;;
41687;SDS011;27371;42.686;23.362;2023-04-24T06:49:40;8.55;;;6.15;;
41687;SDS011;27371;42.686;23.362;2023-04-24T06:52:06;14.02;;;5.28;;
41687;SDS011;27371;42.686;23.362;2023-04-24T06:54:32;9.93;;;5.10;;
41687;SDS011;27371;42.686;23.362;2023-04-24T06:56:58;13.02;;;5.30;;
41687;SDS011;27371;42.686;23.362;2023-04-24T06:59:26;15.30;;;5.70;;
41687;SDS011;27371;42.686;23.362;2023-04-24T07:01:52;10.93;;;5.25;;
41687;SDS011;27371;42.686;23.362;2023-04-24T07:04:18;14.13;;;5.70;;
41687;SDS011;27371;42.686;23.362;2023-04-24T07:06:44;12.57;;;5.53;;
41687;SDS011;27371;42.686;23.362;2023-04-24T07:09:14;9.88;;;5.82;;
41687;SDS011;27371;42.686;23.362;2023-04-24T07:11:41;10.63;;;5.30;;
41687;SDS011;27371;42.686;23.362;2023-04-24T07:14:06;10.25;;;4.78;;
41687;SDS011;27371;42.686;23.362;2023-04-24T07:16:32;18.20;;;6.75;;
41687;SDS011;27371;42.686;23.362;2023-04-24T07:18:58;16.85;;;6.18;;
41687;SDS011;27371;42.686;23.362;2023-04-24T07:21:23;12.52;;;5.00;;
41687;SDS011;27371;42.686;23.362;2023-04-24T07:23:50;8.50;;;5.57;;
41687;SDS011;27371;42.686;23.362;2023-04-24T07:26:16;12.75;;;5.60;;
41687;SDS011;27371;42.686;23.362;2023-04-24T07:28:42;9.13;;;5.45;;
41687;SDS011;27371;42.686;23.362;2023-04-24T07:31:07;16.40;;;5.80;;
41687;SDS011;27371;42.686;23.362;2023-04-24T07:33:33;8.80;;;5.25;;
41687;SDS011;27371;42.686;23.362;2023-04-24T07:35:59;15.50;;;5.97;;
41687;SDS011;27371;42.686;23.362;2023-04-24T07:38:24;9.25;;;6.25;;
41687;SDS011;27371;42.686;23.362;2023-04-24T07:40:51;8.77;;;5.30;;
41687;SDS011;27371;42.686;23.362;2023-04-24T07:43:16;10.95;;;5.03;;
41687;SDS011;27371;42.686;23.362;2023-04-24T07:45:43;13.40;;;5.28;;
41687;SDS011;27371;42.686;23.362;2023-04-24T07:48:09;9.73;;;5.40;;
41687;SDS011;27371;42.686;23.362;2023-04-24T07:50:34;6.85;;;3.50;;
41687;SDS011;27371;42.686;23.362;2023-04-24T07:53:01;7.10;;;5.03;;
41687;SDS011;27371;42.686;23.362;2023-04-24T07:55:27;10.23;;;4.40;;
41687;SDS011;27371;42.686;23.362;2023-04-24T07:57:52;6.30;;;3.83;;
41687;SDS011;27371;42.686;23.362;2023-04-24T08:00:18;7.80;;;4.47;;
41687;SDS011;27371;42.686;23.362;2023-04-24T08:02:44;6.45;;;4.10;;
41687;SDS011;27371;42.686;23.362;2023-04-24T08:05:10;7.03;;;3.47;;
41687;SDS011;27371;42.686;23.362;2023-04-24T08:07:35;9.55;;;3.85;;
41687;SDS011;27371;42.686;23.362;2023-04-24T08:10:01;6.70;;;4.03;;
41687;SDS011;27371;42.686;23.362;2023-04-24T08:12:30;3.00;;;2.53;;
41687;SDS011;27371;42.686;23.362;2023-04-24T08:14:56;6.57;;;3.53;;
41687;SDS011;27371;42.686;23.362;2023-04-24T08:17:22;6.13;;;3.60;;
41687;SDS011;27371;42.686;23.362;2023-04-24T08:19:47;7.30;;;3.55;;
41687;SDS011;27371;42.686;23.362;2023-04-24T08:22:16;6.80;;;3.60;;
41687;SDS011;27371;42.686;23.362;2023-04-24T08:24:41;9.32;;;3.72;;
41687;SDS011;27371;42.686;23.362;2023-04-24T08:27:08;6.85;;;3.50;;
41687;SDS011;27371;42.686;23.362;2023-04-24T08:29:33;7.00;;;4.05;;
41687;SDS011;27371;42.686;23.362;2023-04-24T08:31:59;6.18;;;3.95;;
41687;SDS011;27371;42.686;23.362;2023-04-24T08:34:24;7.60;;;3.65;;
41687;SDS011;27371;42.686;23.362;2023-04-24T08:36:50;6.07;;;3.78;;
41687;SDS011;27371;42.686;23.362;2023-04-24T08:39:15;5.85;;;3.60;;
41687;SDS011;27371;42.686;23.362;2023-04-24T08:41:43;4.88;;;3.33;;
41687;SDS011;27371;42.686;23.362;2023-04-24T08:44:10;7.35;;;3.30;;
41687;SDS011;27371;42.686;23.362;2023-04-24T08:46:37;5.47;;;3.08;;
41687;SDS011;27371;42.686;23.362;2023-04-24T08:49:04;6.05;;;3.40;;
41687;SDS011;27371;42.686;23.362;2023-04-24T08:51:30;6.10;;;2.72;;
41687;SDS011;27371;42.686;23.362;2023-04-24T08:53:57;7.28;;;3.05;;
41687;SDS011;27371;42.686;23.362;2023-04-24T08:56:23;5.30;;;3.20;;
41687;SDS011;27371;42.686;23.362;2023-04-24T08:58:51;8.57;;;3.40;;
41687;SDS011;27371;42.686;23.362;2023-04-24T09:01:19;24.17;;;10.32;;
41687;SDS011;27371;42.686;23.362;2023-04-24T09:03:45;8.77;;;3.70;;
41687;SDS011;27371;42.686;23.362;2023-04-24T09:06:13;7.03;;;3.63;;
41687;SDS011;27371;42.686;23.362;2023-04-24T09:08:39;4.57;;;3.10;;
41687;SDS011;27371;42.686;23.362;2023-04-24T09:11:07;6.75;;;3.65;;
41687;SDS011;27371;42.686;23.362;2023-04-24T09:13:33;6.85;;;3.22;;
41687;SDS011;27371;42.686;23.362;2023-04-24T09:15:59;8.70;;;3.40;;
41687;SDS011;27371;42.686;23.362;2023-04-24T09:18:25;5.85;;;3.45;;
41687;SDS011;27371;42.686;23.362;2023-04-24T09:21:12;7.53;;;3.30;;
41687;SDS011;27371;42.686;23.362;2023-04-24T09:23:37;9.50;;;3.25;;
41687;SDS011;27371;42.686;23.362;2023-04-24T09:26:04;7.80;;;2.80;;
41687;SDS011;27371;42.686;23.362;2023-04-24T09:28:34;8.48;;;3.47;;
41687;SDS011;27371;42.686;23.362;2023-04-24T09:31:02;5.72;;;3.05;;
41687;SDS011;27371;42.686;23.362;2023-04-24T09:33:29;7.43;;;3.15;;
41687;SDS011;27371;42.686;23.362;2023-04-24T09:35:55;7.85;;;3.33;;
41687;SDS011;27371;42.686;23.362;2023-04-24T09:38:30;7.18;;;3.33;;
41687;SDS011;27371;42.686;23.362;2023-04-24T09:41:05;6.15;;;3.13;;
41687;SDS011;27371;42.686;23.362;2023-04-24T09:43:32;7.10;;;2.85;;
41687;SDS011;27371;42.686;23.362;2023-04-24T09:45:59;8.10;;;2.83;;
41687;SDS011;27371;42.686;23.362;2023-04-24T09:48:34;11.88;;;3.70;;
41687;SDS011;27371;42.686;23.362;2023-04-24T09:51:02;7.53;;;3.40;;
41687;SDS011;27371;42.686;23.362;2023-04-24T09:53:29;7.00;;;2.80;;
41687;SDS011;27371;42.686;23.362;2023-04-24T09:56:01;8.77;;;2.97;;
41687;SDS011;27371;42.686;23.362;2023-04-24T09:58:28;8.02;;;3.42;;
41687;SDS011;27371;42.686;23.362;2023-04-24T10:00:55;7.90;;;3.03;;
41687;SDS011;27371;42.686;23.362;2023-04-24T10:03:25;6.30;;;3.13;;
41687;SDS011;27371;42.686;23.362;2023-04-24T10:05:52;8.00;;;2.90;;
41687;SDS011;27371;42.686;23.362;2023-04-24T10:08:18;5.78;;;2.83;;
41687;SDS011;27371;42.686;23.362;2023-04-24T10:10:45;7.55;;;2.80;;
41687;SDS011;27371;42.686;23.362;2023-04-24T10:13:12;7.45;;;3.03;;
41687;SDS011;27371;42.686;23.362;2023-04-24T10:15:40;6.07;;;2.78;;
41687;SDS011;27371;42.686;23.362;2023-04-24T10:18:07;9.15;;;3.08;;
41687;SDS011;27371;42.686;23.362;2023-04-24T10:20:34;7.15;;;2.83;;
41687;SDS011;27371;42.686;23.362;2023-04-24T10:23:01;7.07;;;2.97;;
41687;SDS011;27371;42.686;23.362;2023-04-24T10:25:30;5.63;;;2.63;;
41687;SDS011;27371;42.686;23.362;2023-04-24T10:27:58;5.55;;;2.72;;
41687;SDS011;27371;42.686;23.362;2023-04-24T10:30:26;6.38;;;2.90;;
41687;SDS011;27371;42.686;23.362;2023-04-24T10:32:52;7.47;;;2.90;;
41687;SDS011;27371;42.686;23.362;2023-04-24T10:35:19;6.70;;;2.83;;
41687;SDS011;27371;42.686;23.362;2023-04-24T10:37:50;6.72;;;2.95;;
41687;SDS011;27371;42.686;23.362;2023-04-24T10:40:29;7.07;;;2.78;;
41687;SDS011;27371;42.686;23.362;2023-04-24T10:42:56;6.63;;;2.97;;
41687;SDS011;27371;42.686;23.362;2023-04-24T10:45:22;7.53;;;3.00;;
41687;SDS011;27371;42.686;23.362;2023-04-24T10:47:52;7.32;;;2.90;;
41687;SDS011;27371;42.686;23.362;2023-04-24T10:50:27;5.20;;;3.00;;
41687;SDS011;27371;42.686;23.362;2023-04-24T10:53:04;4.15;;;2.78;;
41687;SDS011;27371;42.686;23.362;2023-04-24T10:58:15;6.45;;;3.03;;
41687;SDS011;27371;42.686;23.362;2023-04-24T11:00:42;4.63;;;3.03;;
41687;SDS011;27371;42.686;23.362;2023-04-24T11:03:44;7.32;;;3.28;;
41687;SDS011;27371;42.686;23.362;2023-04-24T11:06:07;10.02;;;2.97;;
41687;SDS011;27371;42.686;23.362;2023-04-24T11:08:43;5.85;;;2.60;;
41687;SDS011;27371;42.686;23.362;2023-04-24T11:11:11;5.22;;;2.60;;
41687;SDS011;27371;42.686;23.362;2023-04-24T11:21:47;5.90;;;2.90;;
41687;SDS011;27371;42.686;23.362;2023-04-24T11:27:19;6.90;;;3.17;;
41687;SDS011;27371;42.686;23.362;2023-04-24T11:34:51;11.57;;;3.47;;
41687;SDS011;27371;42.686;23.362;2023-04-24T11:37:19;12.15;;;3.08;;
41687;SDS011;27371;42.686;23.362;2023-04-24T11:39:45;6.45;;;2.70;;
41687;SDS011;27371;42.686;23.362;2023-04-24T11:42:10;6.55;;;2.85;;
41687;SDS011;27371;42.686;23.362;2023-04-24T11:44:39;5.13;;;3.08;;
41687;SDS011;27371;42.686;23.362;2023-04-24T11:47:07;7.70;;;3.55;;
41687;SDS011;27371;42.686;23.362;2023-04-24T11:49:33;5.25;;;3.03;;
41687;SDS011;27371;42.686;23.362;2023-04-24T11:52:01;5.10;;;2.90;;
41687;SDS011;27371;42.686;23.362;2023-04-24T11:54:27;4.72;;;2.90;;
41687;SDS011;27371;42.686;23.362;2023-04-24T11:56:53;2.60;;;1.80;;
41687;SDS011;27371;42.686;23.362;2023-04-24T11:59:18;2.30;;;1.63;;
41687;SDS011;27371;42.686;23.362;2023-04-24T12:01:47;5.75;;;2.40;;
41687;SDS011;27371;42.686;23.362;2023-04-24T12:04:13;3.92;;;2.13;;
41687;SDS011;27371;42.686;23.362;2023-04-24T12:06:40;4.78;;;2.42;;
41687;SDS011;27371;42.686;23.362;2023-04-24T12:09:23;3.88;;;2.30;;
41687;SDS011;27371;42.686;23.362;2023-04-24T12:11:53;4.00;;;2.33;;
41687;SDS011;27371;42.686;23.362;2023-04-24T12:14:21;3.05;;;1.95;;
41687;SDS011;27371;42.686;23.362;2023-04-24T12:16:48;8.15;;;2.70;;
41687;SDS011;27371;42.686;23.362;2023-04-24T12:19:21;8.77;;;2.58;;
41687;SDS011;27371;42.686;23.362;2023-04-24T12:22:02;6.07;;;2.08;;
41687;SDS011;27371;42.686;23.362;2023-04-24T12:24:30;5.78;;;2.83;;
41687;SDS011;27371;42.686;23.362;2023-04-24T12:26:56;4.78;;;2.55;;
41687;SDS011;27371;42.686;23.362;2023-04-24T12:29:23;6.97;;;2.50;;
41687;SDS011;27371;42.686;23.362;2023-04-24T12:31:49;7.18;;;3.20;;
41687;SDS011;27371;42.686;23.362;2023-04-24T12:34:22;7.35;;;2.88;;
41687;SDS011;27371;42.686;23.362;2023-04-24T12:36:50;6.30;;;2.10;;
41687;SDS011;27371;42.686;23.362;2023-04-24T12:39:18;1.85;;;1.50;;
41687;SDS011;27371;42.686;23.362;2023-04-24T12:41:57;4.00;;;1.67;;
41687;SDS011;27371;42.686;23.362;2023-04-24T12:44:32;4.13;;;1.75;;
41687;SDS011;27371;42.686;23.362;2023-04-24T12:47:02;5.57;;;1.63;;
41687;SDS011;27371;42.686;23.362;2023-04-24T12:49:31;7.07;;;2.47;;
41687;SDS011;27371;42.686;23.362;2023-04-24T12:51:57;4.97;;;1.88;;
41687;SDS011;27371;42.686;23.362;2023-04-24T12:54:22;3.42;;;2.00;;
41687;SDS011;27371;42.686;23.362;2023-04-24T12:56:48;5.72;;;2.03;;
41687;SDS011;27371;42.686;23.362;2023-04-24T12:59:13;3.67;;;1.67;;
41687;SDS011;27371;42.686;23.362;2023-04-24T13:01:39;5.43;;;1.90;;
41687;SDS011;27371;42.686;23.362;2023-04-24T13:04:05;4.53;;;2.03;;
41687;SDS011;27371;42.686;23.362;2023-04-24T13:06:30;4.63;;;2.17;;
41687;SDS011;27371;42.686;23.362;2023-04-24T13:08:56;3.20;;;2.08;;
41687;SDS011;27371;42.686;23.362;2023-04-24T13:11:23;3.80;;;1.95;;
41687;SDS011;27371;42.686;23.362;2023-04-24T13:13:49;3.92;;;2.00;;
41687;SDS011;27371;42.686;23.362;2023-04-24T13:16:14;4.05;;;2.10;;
41687;SDS011;27371;42.686;23.362;2023-04-24T13:18:40;4.32;;;1.90;;
41687;SDS011;27371;42.686;23.362;2023-04-24T13:21:05;3.63;;;2.40;;
41687;SDS011;27371;42.686;23.362;2023-04-24T13:23:31;7.35;;;2.75;;
41687;SDS011;27371;42.686;23.362;2023-04-24T13:25:56;5.32;;;2.22;;
41687;SDS011;27371;42.686;23.362;2023-04-24T13:28:22;3.20;;;2.40;;
41687;SDS011;27371;42.686;23.362;2023-04-24T13:30:48;5.15;;;2.30;;
41687;SDS011;27371;42.686;23.362;2023-04-24T13:33:14;4.63;;;2.15;;
41687;SDS011;27371;42.686;23.362;2023-04-24T13:35:39;6.28;;;2.22;;
41687;SDS011;27371;42.686;23.362;2023-04-24T13:38:05;7.18;;;2.70;;
41687;SDS011;27371;42.686;23.362;2023-04-24T13:40:31;4.03;;;2.20;;
41687;SDS011;27371;42.686;23.362;2023-04-24T13:42:57;9.00;;;2.40;;
41687;SDS011;27371;42.686;23.362;2023-04-24T13:45:22;3.83;;;2.38;;
41687;SDS011;27371;42.686;23.362;2023-04-24T13:47:48;6.70;;;2.30;;
41687;SDS011;27371;42.686;23.362;2023-04-24T13:50:13;5.00;;;2.72;;
41687;SDS011;27371;42.686;23.362;2023-04-24T13:52:40;5.75;;;2.20;;
41687;SDS011;27371;42.686;23.362;2023-04-24T13:55:05;4.53;;;2.53;;
41687;SDS011;27371;42.686;23.362;2023-04-24T13:57:31;4.47;;;2.45;;
41687;SDS011;27371;42.686;23.362;2023-04-24T13:59:57;5.78;;;2.80;;
41687;SDS011;27371;42.686;23.362;2023-04-24T14:02:26;4.82;;;2.80;;
41687;SDS011;27371;42.686;23.362;2023-04-24T14:04:52;4.38;;;2.20;;
41687;SDS011;27371;42.686;23.362;2023-04-24T14:07:18;4.82;;;2.42;;
41687;SDS011;27371;42.686;23.362;2023-04-24T14:09:43;5.43;;;2.15;;
41687;SDS011;27371;42.686;23.362;2023-04-24T14:12:08;3.80;;;2.10;;
41687;SDS011;27371;42.686;23.362;2023-04-24T14:14:34;5.88;;;2.40;;
41687;SDS011;27371;42.686;23.362;2023-04-24T14:17:00;5.35;;;2.47;;
41687;SDS011;27371;42.686;23.362;2023-04-24T14:19:25;5.22;;;2.03;;
41687;SDS011;27371;42.686;23.362;2023-04-24T14:21:51;6.30;;;2.17;;
41687;SDS011;27371;42.686;23.362;2023-04-24T14:24:16;3.78;;;1.92;;
41687;SDS011;27371;42.686;23.362;2023-04-24T14:26:42;7.05;;;1.98;;
41687;SDS011;27371;42.686;23.362;2023-04-24T14:29:07;8.50;;;2.10;;
41687;SDS011;27371;42.686;23.362;2023-04-24T14:31:33;6.22;;;1.85;;
41687;SDS011;27371;42.686;23.362;2023-04-24T14:33:58;6.50;;;2.30;;
41687;SDS011;27371;42.686;23.362;2023-04-24T14:36:24;7.78;;;2.45;;
41687;SDS011;27371;42.686;23.362;2023-04-24T14:38:50;6.00;;;2.40;;
41687;SDS011;27371;42.686;23.362;2023-04-24T14:41:15;3.30;;;2.00;;
41687;SDS011;27371;42.686;23.362;2023-04-24T14:43:41;4.32;;;2.03;;
41687;SDS011;27371;42.686;23.362;2023-04-24T14:46:06;3.47;;;1.73;;
41687;SDS011;27371;42.686;23.362;2023-04-24T14:48:32;4.53;;;1.73;;